Main page
METAR-TAF:

METAR-TAF

Airports :

Florence Airport

Florence, Italy

latitude: 43-48N, longitude: 011-12E, elevation: 40 m

Current weather observation

The report was made 34 minutes ago, at 01:20 UTC
Wind 3 kt from the East/Northeast
Temperature 4°C
Humidity 87%
Pressure 1013 hPa
Visibility 10 km or more
Broken clouds at a height of 4000 ft

METAR: LIRQ 200120Z 07003KT 9999 BKN040 04/02 Q1013

Time: 02:54 (01:54 UTC)

Forecast

The report was made 2 hours and 54 minutes ago, at 23:00 UTC
Forecast valid from 20 at 00 UTC to 20 at 24 UTC
Wind 5 kt from variable directions
Visibility 10 km or more
Scattered clouds at a height of 4000 ft
Temporary
from 20 at 03 UTC to 20 at 08 UTC
Visibility: 4000 m
rain

TAF: LIRQ 192300Z 2000/2024 VRB05KT 9999 SCT040 TEMPO 2003/2008 4000 RA

Weather observations and forecasts of more than 4000 airports (METAR and TAF reports).

The available stations are represented by yellow and red dots on the map.

Hover mouse over dot to see the name of the station.

Then click to see weather observations and forecasts.

To change the map : click on the green buttons with a black cross to zoom in, on the green button with a dash to zoom out, or on the green arrows for adjacent maps.


METAR-TAF: